Venividivici — ZCPL9 — position and weather

sailwx.info

Track history (hours):
 
Tides and Currents Weather Stations Pressure Air Temp Water Temp Dewpoint Dewpoint Depression Visibility Wind Speed Wind Dir Waves Ship Positions

Venividivici

Last reported at 2017-Mar-23 17:26 UTC. Time now 2017-Mar-23 20:09 UTC.
Position N 43°31' E 006°58'.

Length 40 m; draft 2 m.

MMSI: 319081000.

Date/timePositionNaut miles runAvg speedWind from/ knotsBaromVisibWave heightAir tempDewpointWater temp
2017-Mar-23 17:26N 43°31' E 006°58'17 9.1
2017-Mar-23 15:32N 43°42' E 007°17'0 0.0
2017-Mar-23 12:26N 43°42' E 007°17'0 0.0
2017-Mar-23 11:29N 43°42' E 007°17'0 0.0
2017-Mar-23 10:18N 43°42' E 007°17'0 0.0
2017-Mar-23 09:31N 43°42' E 007°17'0 0.0
2017-Mar-23 08:31N 43°42' E 007°17'0 0.0
2017-Mar-23 07:32N 43°42' E 007°17'0 0.0
2017-Mar-23 06:33N 43°42' E 007°17'0 0.0
2017-Mar-23 05:33N 43°42' E 007°17'0 0.0
2017-Mar-23 04:16N 43°42' E 007°17'0 0.0
2017-Mar-23 03:29N 43°42' E 007°17'0 0.0
2017-Mar-23 02:32N 43°42' E 007°17'0 0.0
2017-Mar-23 01:24N 43°42' E 007°17'0 0.0
2017-Mar-23 00:31N 43°42' E 007°17'0 0.0
2017-Mar-22 23:28N 43°42' E 007°17'0 0.0
2017-Mar-22 21:21N 43°42' E 007°17'0 0.0
2017-Mar-22 20:33N 43°42' E 007°17'0 0.0
2017-Mar-22 18:20N 43°42' E 007°17'0 0.0
2017-Mar-22 08:20N 43°42' E 007°17'1518.9
2017-Mar-22 07:33N 43°32' E 007°02'4 0.1
2017-Mar-20 09:04N 43°31' E 006°57'0 0.0
2017-Mar-20 08:29N 43°31' E 006°57'15 1.0
2017-Mar-19 16:22N 43°19' E 007°09'15 3.8
2017-Mar-19 12:33N 43°32' E 007°02'0 0.0
2017-Mar-19 10:20N 43°32' E 007°02'0 0.0
2017-Mar-19 06:31N 43°32' E 007°02'0 0.0
2017-Mar-19 05:29N 43°32' E 007°02'0 0.0
2017-Mar-18 22:16N 43°32' E 007°02'0 0.0
2017-Mar-18 21:19N 43°32' E 007°02'0 0.0
2017-Mar-18 20:29N 43°32' E 007°02'0 0.0
2017-Mar-18 19:06N 43°32' E 007°02'0 0.0
2017-Mar-18 13:31N 43°32' E 007°02'0 0.0
2017-Mar-18 12:08N 43°32' E 007°02'0 0.0
2017-Mar-18 11:05N 43°32' E 007°02'0 0.0
2017-Mar-18 09:33N 43°32' E 007°02'0 0.0
2017-Mar-18 08:19N 43°32' E 007°02'0 0.0
2017-Mar-18 06:12N 43°32' E 007°02'0 0.0
2017-Mar-18 05:24N 43°32' E 007°02'0 0.0
2017-Mar-18 04:25N 43°32' E 007°02'0 0.0
2017-Mar-18 02:05N 43°32' E 007°02'0 0.0
2017-Mar-18 01:30N 43°32' E 007°02'0 0.0
2017-Mar-17 22:26N 43°32' E 007°02'0 0.0
2017-Mar-17 21:09N 43°32' E 007°02'0 0.0
2017-Mar-17 19:31N 43°32' E 007°02'0 0.0
2017-Mar-17 17:26N 43°32' E 007°02'0 0.0
2017-Mar-17 16:09N 43°32' E 007°02'0 0.0
2017-Mar-17 15:33N 43°32' E 007°02'0 0.0
2017-Mar-17 14:31N 43°32' E 007°02'0 0.0
2017-Mar-17 13:20N 43°32' E 007°02'0 0.0
2017-Mar-17 12:12N 43°32' E 007°02'0 0.0
2017-Mar-17 11:33N 43°32' E 007°02'  
Track history (hours):
 
Tides and Currents Weather Stations Pressure Air Temp Water Temp Dewpoint Dewpoint Depression Visibility Wind Speed Wind Dir Waves Ship Positions

Venividivici

Last reported at 2017-Mar-23 17:26 UTC. Time now 2017-Mar-23 20:09 UTC.
Position N 43°31' E 006°58'.

Length 40 m; draft 2 m.

MMSI: 319081000.

Date/timePositionNaut miles runAvg speedWind from/ knotsBaromVisibWave heightAir tempDewpointWater temp
2017-Mar-23 17:26N 43°31' E 006°58'17 9.1
2017-Mar-23 15:32N 43°42' E 007°17'0 0.0
2017-Mar-23 12:26N 43°42' E 007°17'0 0.0
2017-Mar-23 11:29N 43°42' E 007°17'0 0.0
2017-Mar-23 10:18N 43°42' E 007°17'0 0.0
2017-Mar-23 09:31N 43°42' E 007°17'0 0.0
2017-Mar-23 08:31N 43°42' E 007°17'0 0.0
2017-Mar-23 07:32N 43°42' E 007°17'0 0.0
2017-Mar-23 06:33N 43°42' E 007°17'0 0.0
2017-Mar-23 05:33N 43°42' E 007°17'0 0.0
2017-Mar-23 04:16N 43°42' E 007°17'0 0.0
2017-Mar-23 03:29N 43°42' E 007°17'0 0.0
2017-Mar-23 02:32N 43°42' E 007°17'0 0.0
2017-Mar-23 01:24N 43°42' E 007°17'0 0.0
2017-Mar-23 00:31N 43°42' E 007°17'0 0.0
2017-Mar-22 23:28N 43°42' E 007°17'0 0.0
2017-Mar-22 21:21N 43°42' E 007°17'0 0.0
2017-Mar-22 20:33N 43°42' E 007°17'0 0.0
2017-Mar-22 18:20N 43°42' E 007°17'0 0.0
2017-Mar-22 08:20N 43°42' E 007°17'1518.9
2017-Mar-22 07:33N 43°32' E 007°02'4 0.1
2017-Mar-20 09:04N 43°31' E 006°57'0 0.0
2017-Mar-20 08:29N 43°31' E 006°57'15 1.0
2017-Mar-19 16:22N 43°19' E 007°09'15 3.8
2017-Mar-19 12:33N 43°32' E 007°02'0 0.0
2017-Mar-19 10:20N 43°32' E 007°02'0 0.0
2017-Mar-19 06:31N 43°32' E 007°02'0 0.0
2017-Mar-19 05:29N 43°32' E 007°02'0 0.0
2017-Mar-18 22:16N 43°32' E 007°02'0 0.0
2017-Mar-18 21:19N 43°32' E 007°02'0 0.0
2017-Mar-18 20:29N 43°32' E 007°02'0 0.0
2017-Mar-18 19:06N 43°32' E 007°02'0 0.0
2017-Mar-18 13:31N 43°32' E 007°02'0 0.0
2017-Mar-18 12:08N 43°32' E 007°02'0 0.0
2017-Mar-18 11:05N 43°32' E 007°02'0 0.0
2017-Mar-18 09:33N 43°32' E 007°02'0 0.0
2017-Mar-18 08:19N 43°32' E 007°02'0 0.0
2017-Mar-18 06:12N 43°32' E 007°02'0 0.0
2017-Mar-18 05:24N 43°32' E 007°02'0 0.0
2017-Mar-18 04:25N 43°32' E 007°02'0 0.0
2017-Mar-18 02:05N 43°32' E 007°02'0 0.0
2017-Mar-18 01:30N 43°32' E 007°02'0 0.0
2017-Mar-17 22:26N 43°32' E 007°02'0 0.0
2017-Mar-17 21:09N 43°32' E 007°02'0 0.0
2017-Mar-17 19:31N 43°32' E 007°02'0 0.0
2017-Mar-17 17:26N 43°32' E 007°02'0 0.0
2017-Mar-17 16:09N 43°32' E 007°02'0 0.0
2017-Mar-17 15:33N 43°32' E 007°02'0 0.0
2017-Mar-17 14:31N 43°32' E 007°02'0 0.0
2017-Mar-17 13:20N 43°32' E 007°02'0 0.0
2017-Mar-17 12:12N 43°32' E 007°02'0 0.0
2017-Mar-17 11:33N 43°32' E 007°02'  

Dump ship's entire track history